YVO weather

Val-d'Or Airport
Val-d'Or, Quebec, Canada

Public forecast

Using degrees Celsius for public forecast. Weather courtesy of forecast.io.

METAR (pilot weather report)

Retrieved 2019/04/22 05:00 UTC (52 minutes ago):

CYVO 220500Z AUTO 01008KT 9SM CLR M01/M03 A3027 RMK PRESRR SLP269

TAF (pilot weather forecast)

Forecast is more than 12 hours old.

Retrieved 2019/04/21 00:00 UTC (1 day ago):

TAF CYVO 212338Z 2200/2212 02008KT P6SM SCT070 FM220400 03008KT P6SM FEW025 SCT100 FM221000 04006KT P6SM FEW006 BKN090 RMK NXT FCST BY 220600Z